createdAt,value
2023-06-19T00:04:23.537Z,12.50
2023-06-19T00:09:25.564Z,12.48
2023-06-19T00:14:27.558Z,12.44
2023-06-19T00:19:30.976Z,12.41
2023-06-19T00:24:33.082Z,12.40
2023-06-19T00:29:35.482Z,12.47
2023-06-19T00:34:38.884Z,12.50
2023-06-19T00:39:43.777Z,12.36
2023-06-19T00:44:46.814Z,12.22
2023-06-19T00:49:52.016Z,12.17
2023-06-19T00:54:54.947Z,12.04
2023-06-19T00:59:57.886Z,12.08
2023-06-19T01:05:01.798Z,11.95
2023-06-19T01:10:07.955Z,11.88
2023-06-19T01:15:10.386Z,11.70
2023-06-19T01:20:15.498Z,11.57
2023-06-19T01:25:18.860Z,11.52
2023-06-19T01:30:21.318Z,11.52
2023-06-19T01:35:25.499Z,11.45
2023-06-19T01:40:32.771Z,11.49
2023-06-19T01:45:35.212Z,11.56
2023-06-19T01:50:37.275Z,11.53
2023-06-19T01:55:40.672Z,11.47
2023-06-19T02:00:42.760Z,11.56
2023-06-19T02:05:45.106Z,11.60
2023-06-19T02:10:48.754Z,11.54
2023-06-19T02:15:50.741Z,11.54
2023-06-19T02:20:52.782Z,11.52
2023-06-19T02:25:56.151Z,11.47
2023-06-19T02:30:58.159Z,11.44
2023-06-19T02:36:01.264Z,11.44
2023-06-19T02:41:04.627Z,11.47
2023-06-19T02:46:06.660Z,11.47
2023-06-19T02:51:08.708Z,11.49
2023-06-19T02:56:12.433Z,11.61
2023-06-19T03:01:14.529Z,11.77
2023-06-19T03:06:16.544Z,11.81
2023-06-19T03:11:19.878Z,11.96
2023-06-19T03:16:22.192Z,12.31
2023-06-19T03:21:24.357Z,12.54
2023-06-19T03:26:27.783Z,12.96
2023-06-19T03:31:29.805Z,13.60
2023-06-19T03:36:31.787Z,14.88
2023-06-19T03:41:35.150Z,16.02
2023-06-19T03:46:37.249Z,16.33
2023-06-19T03:51:39.395Z,16.67
2023-06-19T03:56:43.064Z,17.17
2023-06-19T04:01:45.144Z,16.90
2023-06-19T04:06:47.874Z,16.23
2023-06-19T04:11:51.243Z,15.72
2023-06-19T04:16:53.217Z,15.60
2023-06-19T04:21:55.774Z,15.54
2023-06-19T04:26:59.404Z,15.75
2023-06-19T04:32:04.139Z,15.79
2023-06-19T04:37:06.661Z,15.69
2023-06-19T04:42:10.212Z,15.68
2023-06-19T04:47:12.226Z,15.79
2023-06-19T04:52:14.267Z,15.82
2023-06-19T04:57:17.656Z,16.03
2023-06-19T05:02:19.952Z,16.17
2023-06-19T05:07:22.093Z,16.39
2023-06-19T05:12:25.456Z,16.62
2023-06-19T05:17:27.702Z,16.84
2023-06-19T05:22:30.347Z,17.10
2023-06-19T05:27:34.112Z,17.37
2023-06-19T05:32:36.229Z,17.63
2023-06-19T05:37:39.909Z,17.93
2023-06-19T05:42:43.300Z,18.17
2023-06-19T05:47:45.377Z,18.35
2023-06-19T05:52:47.357Z,18.87
2023-06-19T05:57:50.908Z,19.22
2023-06-19T06:02:53.253Z,19.41
2023-06-19T06:07:55.962Z,19.66
2023-06-19T06:12:59.473Z,19.84
2023-06-19T06:18:01.877Z,20.02
2023-06-19T06:23:04.520Z,20.13
2023-06-19T06:28:08.000Z,20.23
2023-06-19T06:33:10.092Z,20.38
2023-06-19T06:38:12.296Z,20.53
2023-06-19T06:43:15.800Z,20.57
2023-06-19T06:48:18.160Z,20.72
2023-06-19T06:53:20.225Z,20.85
2023-06-19T06:58:23.685Z,21.15
2023-06-19T07:03:25.858Z,21.30
2023-06-19T07:08:28.320Z,21.53
2023-06-19T07:13:31.690Z,21.78
2023-06-19T07:18:36.088Z,21.68
2023-06-19T07:23:38.404Z,22.05
2023-06-19T07:28:41.856Z,22.29
2023-06-19T07:33:43.886Z,22.56
2023-06-19T07:38:46.980Z,22.71
2023-06-19T07:43:50.424Z,22.76
2023-06-19T07:48:52.412Z,23.29
2023-06-19T07:53:54.458Z,23.35
2023-06-19T07:58:57.796Z,23.23
2023-06-19T08:03:59.927Z,23.35
2023-06-19T08:09:02.022Z,23.54
2023-06-19T08:14:05.383Z,24.02
2023-06-19T08:19:07.413Z,24.22
2023-06-19T08:24:09.446Z,24.04
2023-06-19T08:29:12.831Z,24.05
2023-06-19T08:34:14.966Z,24.45
2023-06-19T08:39:17.132Z,24.61
2023-06-19T08:44:20.491Z,24.73
2023-06-19T08:49:22.543Z,24.86
2023-06-19T08:54:26.101Z,24.99
2023-06-19T08:59:32.826Z,25.08
2023-06-19T09:04:35.200Z,25.11
2023-06-19T09:09:37.177Z,25.45
2023-06-19T09:14:41.944Z,24.91
2023-06-19T09:19:49.224Z,24.94
2023-06-19T09:24:51.432Z,25.20
2023-06-19T09:29:54.932Z,24.45
2023-06-19T09:35:01.523Z,24.26
2023-06-19T09:40:11.868Z,25.38
2023-06-19T09:45:19.992Z,25.11
2023-06-19T09:50:24.157Z,25.03
2023-06-19T09:55:30.408Z,25.25
2023-06-19T10:00:34.894Z,25.41
2023-06-19T10:05:37.507Z,25.62
2023-06-19T10:10:48.394Z,25.84
2023-06-19T10:15:51.776Z,25.19
2023-06-19T10:20:55.371Z,25.55
2023-06-19T10:25:59.301Z,25.40
2023-06-19T10:31:06.701Z,25.23
2023-06-19T10:36:20.841Z,25.28
2023-06-19T10:41:24.459Z,25.45
2023-06-19T10:46:31.377Z,25.30
2023-06-19T10:51:35.734Z,25.95
2023-06-19T10:56:37.821Z,25.78
2023-06-19T11:01:43.065Z,25.98
2023-06-19T11:06:46.974Z,26.04
2023-06-19T11:11:49.591Z,25.31
2023-06-19T11:16:53.007Z,25.30
2023-06-19T11:21:55.786Z,25.65
2023-06-19T11:27:00.114Z,26.58
2023-06-19T11:32:08.508Z,26.43
2023-06-19T11:37:13.955Z,25.97
2023-06-19T11:42:18.257Z,26.10
2023-06-19T11:47:21.921Z,26.32
2023-06-19T11:52:24.047Z,26.62
2023-06-19T11:57:28.121Z,26.53
2023-06-19T12:02:31.578Z,26.37
2023-06-19T12:07:34.227Z,26.63
2023-06-19T12:12:36.418Z,26.26
2023-06-19T12:17:40.127Z,26.60
2023-06-19T12:22:42.529Z,26.65
2023-06-19T12:27:44.627Z,26.64
2023-06-19T12:32:50.694Z,26.16
2023-06-19T12:37:53.033Z,26.06
2023-06-19T12:42:55.135Z,25.98
2023-06-19T12:47:58.774Z,26.04
2023-06-19T12:53:00.843Z,26.01
2023-06-19T12:58:02.880Z,26.69
2023-06-19T13:03:06.437Z,26.39
2023-06-19T13:08:08.564Z,26.12
2023-06-19T13:13:11.510Z,26.25
2023-06-19T13:18:14.992Z,26.36
2023-06-19T13:23:17.214Z,26.36
2023-06-19T13:28:19.320Z,26.44
2023-06-19T13:33:22.761Z,26.60
2023-06-19T13:38:24.968Z,26.66
2023-06-19T13:43:27.042Z,26.94
2023-06-19T13:48:30.418Z,26.78
2023-06-19T13:53:32.419Z,26.68
2023-06-19T13:58:34.526Z,26.69
2023-06-19T14:03:42.171Z,26.85
2023-06-19T14:08:44.324Z,26.96
2023-06-19T14:13:46.331Z,26.78
2023-06-19T14:18:49.687Z,27.04
2023-06-19T14:23:51.712Z,26.98
2023-06-19T14:28:58.156Z,26.88
2023-06-19T14:34:01.544Z,27.14
2023-06-19T14:39:03.676Z,27.12
2023-06-19T14:44:06.990Z,27.11
2023-06-19T14:49:11.675Z,26.76
2023-06-19T14:54:15.484Z,26.83
2023-06-19T14:59:17.547Z,27.22
2023-06-19T15:04:21.031Z,27.66
2023-06-19T15:09:23.192Z,27.61
2023-06-19T15:14:25.279Z,27.75
2023-06-19T15:19:28.653Z,27.47
2023-06-19T15:24:30.680Z,27.25
2023-06-19T15:29:32.733Z,27.40
2023-06-19T15:34:38.263Z,27.64
2023-06-19T15:39:42.806Z,27.92
2023-06-19T15:44:45.682Z,28.35
2023-06-19T15:49:49.068Z,29.06
2023-06-19T15:54:51.113Z,29.33
2023-06-19T15:59:53.859Z,29.28
2023-06-19T16:04:57.257Z,30.33
2023-06-19T16:09:59.278Z,31.61
2023-06-19T16:15:01.386Z,30.78
2023-06-19T16:20:06.854Z,31.74
2023-06-19T16:25:11.637Z,30.85
2023-06-19T16:30:13.939Z,31.26
2023-06-19T16:35:23.003Z,30.92
2023-06-19T16:40:26.292Z,30.49
2023-06-19T16:45:28.832Z,31.54
2023-06-19T16:50:32.430Z,31.00
2023-06-19T16:55:34.536Z,30.93
2023-06-19T17:00:36.582Z,31.99
2023-06-19T17:05:39.947Z,31.54
2023-06-19T17:10:42.056Z,30.82
2023-06-19T17:15:44.060Z,28.93
2023-06-19T17:20:47.387Z,27.35
2023-06-19T17:25:49.437Z,27.26
2023-06-19T17:30:51.573Z,26.66
2023-06-19T17:35:55.031Z,27.55
2023-06-19T17:40:57.093Z,26.27
2023-06-19T17:46:00.378Z,24.95
2023-06-19T17:51:04.429Z,23.86
2023-06-19T17:56:06.716Z,23.16
2023-06-19T18:01:08.836Z,22.42
2023-06-19T18:06:12.217Z,21.79
2023-06-19T18:11:14.551Z,21.61
2023-06-19T18:16:16.823Z,20.90
2023-06-19T18:21:20.270Z,20.59
2023-06-19T18:26:22.826Z,20.41
2023-06-19T18:31:24.879Z,20.19
2023-06-19T18:36:28.263Z,19.73
2023-06-19T18:41:30.389Z,19.34
2023-06-19T18:46:32.545Z,19.11
2023-06-19T18:51:36.044Z,18.88
2023-06-19T18:56:38.208Z,18.70
2023-06-19T19:01:40.279Z,18.32
2023-06-19T19:06:43.652Z,18.09
2023-06-19T19:11:47.810Z,17.82
2023-06-19T19:16:49.876Z,17.79
2023-06-19T19:21:54.203Z,17.66
2023-06-19T19:26:56.644Z,17.57
2023-06-19T19:31:58.668Z,17.59
2023-06-19T19:37:02.028Z,17.51
2023-06-19T19:42:04.644Z,17.44
2023-06-19T19:47:07.266Z,17.36
2023-06-19T19:52:10.957Z,17.26
2023-06-19T19:57:13.123Z,17.12
2023-06-19T20:02:15.133Z,17.00
2023-06-19T20:07:18.370Z,16.87
2023-06-19T20:12:21.968Z,16.74
2023-06-19T20:17:24.453Z,16.75
2023-06-19T20:22:27.924Z,16.73
2023-06-19T20:27:30.022Z,16.66
2023-06-19T20:32:31.980Z,16.65
2023-06-19T20:37:35.362Z,16.52
2023-06-19T20:42:37.356Z,16.42
2023-06-19T20:47:39.423Z,16.33
2023-06-19T20:52:42.681Z,16.32
2023-06-19T20:57:44.942Z,16.33
2023-06-19T21:02:47.157Z,16.32
2023-06-19T21:07:52.645Z,16.20
2023-06-19T21:12:54.688Z,16.11
2023-06-19T21:17:56.757Z,15.97
2023-06-19T21:23:00.145Z,16.04
2023-06-19T21:28:02.170Z,15.98
2023-06-19T21:33:04.421Z,15.88
2023-06-19T21:38:07.863Z,15.87
2023-06-19T21:43:10.712Z,15.70
2023-06-19T21:48:12.824Z,15.66
2023-06-19T21:53:16.146Z,15.63
2023-06-19T21:58:18.219Z,15.70
2023-06-19T22:03:20.350Z,15.72
2023-06-19T22:08:34.104Z,15.66
2023-06-19T22:13:43.907Z,15.71
2023-06-19T22:18:45.927Z,15.75
2023-06-19T22:23:49.561Z,15.70
2023-06-19T22:28:51.549Z,15.63
2023-06-19T22:33:53.728Z,15.61
2023-06-19T22:38:57.065Z,15.62
2023-06-19T22:44:02.440Z,15.67
2023-06-19T22:49:04.961Z,15.64
2023-06-19T22:54:08.431Z,15.53
2023-06-19T22:59:10.479Z,15.54
2023-06-19T23:04:12.500Z,15.52
2023-06-19T23:09:15.872Z,15.52
2023-06-19T23:14:17.951Z,15.54
2023-06-19T23:19:20.080Z,15.46
2023-06-19T23:24:23.486Z,15.33
2023-06-19T23:29:25.478Z,15.30
2023-06-19T23:34:27.597Z,15.33
2023-06-19T23:39:30.951Z,15.46
2023-06-19T23:44:33.421Z,15.46
2023-06-19T23:49:35.508Z,15.48
2023-06-19T23:54:38.870Z,15.46
2023-06-19T23:59:40.959Z,15.48
